createdAt,value
2022-07-29T00:00:00.431Z,1.70
2022-07-29T00:02:28.606Z,1.52
2022-07-29T00:04:55.600Z,1.40
2022-07-29T00:07:22.556Z,1.42
2022-07-29T00:09:52.167Z,1.80
2022-07-29T00:12:26.520Z,1.40
2022-07-29T00:14:55.426Z,1.60
2022-07-29T00:17:22.601Z,1.50
2022-07-29T00:19:49.512Z,1.58
2022-07-29T00:22:16.672Z,1.40
2022-07-29T00:24:43.368Z,1.40
2022-07-29T00:27:10.167Z,1.63
2022-07-29T00:29:36.893Z,1.80
2022-07-29T00:32:04.156Z,1.50
2022-07-29T00:34:50.611Z,1.75
2022-07-29T00:37:17.299Z,1.53
2022-07-29T00:39:44.020Z,1.57
2022-07-29T00:42:10.842Z,1.17
2022-07-29T00:44:41.714Z,1.50
2022-07-29T00:47:11.507Z,1.60
2022-07-29T00:49:40.804Z,1.30
2022-07-29T00:52:09.384Z,1.50
2022-07-29T00:54:39.138Z,1.50
2022-07-29T00:57:10.692Z,1.83
2022-07-29T00:59:37.481Z,1.77
2022-07-29T01:02:04.668Z,1.70
2022-07-29T01:04:32.803Z,1.65
2022-07-29T01:07:01.508Z,1.58
2022-07-29T01:09:34.455Z,1.52
2022-07-29T01:12:14.365Z,1.77
2022-07-29T01:14:42.231Z,1.42
2022-07-29T01:17:17.908Z,1.70
2022-07-29T01:20:06.963Z,1.55
2022-07-29T01:23:06.752Z,1.60
2022-07-29T01:25:56.150Z,1.52
2022-07-29T01:28:45.462Z,1.63
2022-07-29T01:31:23.748Z,1.50
2022-07-29T01:33:58.939Z,1.50
2022-07-29T01:36:37.065Z,1.70
2022-07-29T01:39:27.533Z,1.50
2022-07-29T01:42:06.915Z,1.42
2022-07-29T01:44:38.613Z,1.75
2022-07-29T01:47:20.136Z,1.40
2022-07-29T01:49:51.954Z,1.65
2022-07-29T01:52:28.820Z,1.60
2022-07-29T01:55:03.542Z,1.75
2022-07-29T01:57:33.667Z,1.80
2022-07-29T02:00:01.795Z,1.77
2022-07-29T02:02:42.011Z,1.77
2022-07-29T02:05:13.231Z,1.70
2022-07-29T02:07:42.779Z,1.60
2022-07-29T02:10:11.574Z,1.85
2022-07-29T02:12:39.967Z,1.45
2022-07-29T02:15:08.556Z,1.48
2022-07-29T02:17:54.897Z,1.80
2022-07-29T02:20:24.068Z,1.70
2022-07-29T02:22:52.933Z,1.50
2022-07-29T02:25:23.469Z,1.75
2022-07-29T02:27:52.700Z,2.00
2022-07-29T02:30:21.431Z,2.08
2022-07-29T02:32:50.467Z,2.05
2022-07-29T02:35:17.854Z,1.50
2022-07-29T02:37:46.417Z,1.80
2022-07-29T02:40:16.207Z,1.80
2022-07-29T02:42:44.819Z,1.73
2022-07-29T02:45:12.033Z,1.55
2022-07-29T02:47:44.554Z,1.95
2022-07-29T02:50:16.335Z,1.90
2022-07-29T02:52:45.977Z,1.85
2022-07-29T02:55:37.005Z,1.90
2022-07-29T02:58:29.213Z,2.10
2022-07-29T03:01:02.342Z,2.00
2022-07-29T03:03:37.745Z,1.75
2022-07-29T03:06:05.927Z,1.90
2022-07-29T03:08:33.855Z,2.10
2022-07-29T03:11:01.911Z,1.70
2022-07-29T03:13:30.478Z,2.15
2022-07-29T03:15:58.666Z,1.70
2022-07-29T03:18:26.641Z,1.50
2022-07-29T03:20:53.507Z,2.10
2022-07-29T03:23:21.837Z,2.30
2022-07-29T03:25:48.987Z,1.88
2022-07-29T03:28:15.764Z,2.10
2022-07-29T03:30:43.196Z,1.80
2022-07-29T03:33:13.562Z,2.20
2022-07-29T03:35:41.127Z,1.90
2022-07-29T03:38:07.890Z,2.10
2022-07-29T03:40:53.272Z,2.00
2022-07-29T03:43:21.899Z,1.90
2022-07-29T03:45:55.323Z,2.30
2022-07-29T03:48:24.193Z,1.85
2022-07-29T03:50:52.296Z,1.90
2022-07-29T03:53:19.201Z,1.80
2022-07-29T03:55:49.311Z,2.08
2022-07-29T03:58:17.163Z,1.80
2022-07-29T04:00:44.891Z,1.92
2022-07-29T04:05:38.708Z,2.22
2022-07-29T04:08:05.704Z,1.87
2022-07-29T04:10:34.113Z,2.10
2022-07-29T04:13:02.479Z,2.00
2022-07-29T04:15:30.943Z,1.90
2022-07-29T04:17:58.776Z,2.35
2022-07-29T04:20:25.438Z,2.30
2022-07-29T04:22:52.117Z,2.10
2022-07-29T04:25:18.808Z,2.33
2022-07-29T04:28:03.854Z,2.10
2022-07-29T04:30:31.895Z,2.10
2022-07-29T04:32:58.927Z,2.08
2022-07-29T04:35:25.711Z,2.17
2022-07-29T04:37:52.606Z,2.33
2022-07-29T04:40:19.544Z,2.42
2022-07-29T04:42:47.844Z,2.53
2022-07-29T04:45:15.382Z,1.90
2022-07-29T04:47:43.209Z,2.42
2022-07-29T04:50:10.938Z,2.33
2022-07-29T04:52:37.851Z,2.00
2022-07-29T04:55:07.491Z,2.38
2022-07-29T04:57:34.410Z,2.53
2022-07-29T05:00:01.171Z,2.70
2022-07-29T05:02:27.936Z,2.80
2022-07-29T05:04:54.603Z,2.33
2022-07-29T05:07:21.408Z,2.53
2022-07-29T05:09:48.139Z,2.30
2022-07-29T05:12:14.799Z,2.60
2022-07-29T05:14:41.646Z,2.67
2022-07-29T05:17:08.490Z,2.40
2022-07-29T05:19:39.259Z,2.30
2022-07-29T05:22:06.586Z,2.42
2022-07-29T05:24:33.273Z,2.67
2022-07-29T05:27:00.156Z,2.53
2022-07-29T05:29:42.530Z,2.50
2022-07-29T05:32:10.310Z,3.35
2022-07-29T05:34:37.011Z,2.60
2022-07-29T05:37:16.700Z,2.42
2022-07-29T05:39:48.631Z,2.40
2022-07-29T05:42:16.062Z,4.75
2022-07-29T05:44:42.796Z,4.28
2022-07-29T05:47:09.629Z,2.90
2022-07-29T05:49:36.436Z,5.25
2022-07-29T05:52:03.676Z,3.10
2022-07-29T05:54:30.429Z,4.18
2022-07-29T05:56:57.497Z,2.83
2022-07-29T05:59:29.871Z,3.10
2022-07-29T06:01:58.032Z,2.78
2022-07-29T06:04:25.181Z,2.58
2022-07-29T06:06:51.966Z,2.70
2022-07-29T06:09:18.783Z,2.73
2022-07-29T06:11:45.588Z,2.90
2022-07-29T06:14:12.376Z,2.58
2022-07-29T06:16:39.140Z,2.72
2022-07-29T06:19:05.896Z,2.50
2022-07-29T06:21:32.959Z,2.85
2022-07-29T06:23:59.741Z,2.53
2022-07-29T06:26:30.431Z,2.80
2022-07-29T06:28:58.351Z,2.20
2022-07-29T06:31:25.158Z,3.20
2022-07-29T06:33:51.896Z,2.60
2022-07-29T06:36:21.709Z,3.22
2022-07-29T06:38:51.469Z,2.70
2022-07-29T06:41:19.199Z,2.33
2022-07-29T06:43:52.376Z,2.75
2022-07-29T06:46:22.926Z,3.80
2022-07-29T06:48:50.569Z,2.80
2022-07-29T06:51:23.362Z,3.30
2022-07-29T06:54:00.003Z,3.20
2022-07-29T06:56:40.403Z,2.83
2022-07-29T06:59:12.090Z,4.10
2022-07-29T07:01:44.666Z,3.33
2022-07-29T07:04:12.670Z,3.47
2022-07-29T07:06:40.095Z,2.90
2022-07-29T07:09:07.179Z,2.92
2022-07-29T07:11:33.951Z,2.78
2022-07-29T07:14:03.787Z,2.83
2022-07-29T07:16:32.444Z,3.30
2022-07-29T07:18:59.276Z,3.20
2022-07-29T07:21:26.056Z,2.87
2022-07-29T07:23:53.015Z,3.00
2022-07-29T07:26:20.306Z,3.08
2022-07-29T07:28:47.385Z,3.20
2022-07-29T07:31:15.351Z,3.13
2022-07-29T07:33:42.541Z,3.33
2022-07-29T07:36:09.655Z,2.72
2022-07-29T07:38:36.957Z,2.78
2022-07-29T07:41:04.218Z,3.00
2022-07-29T07:43:31.838Z,2.75
2022-07-29T07:48:25.934Z,2.50
2022-07-29T07:50:53.078Z,2.90
2022-07-29T07:53:20.660Z,3.10
2022-07-29T07:56:09.535Z,4.53
2022-07-29T07:58:36.373Z,2.80
2022-07-29T08:01:03.688Z,3.33
2022-07-29T08:03:30.999Z,2.85
2022-07-29T08:05:59.460Z,3.05
2022-07-29T08:08:26.494Z,2.72
2022-07-29T08:10:53.845Z,2.65
2022-07-29T08:13:22.572Z,3.20
2022-07-29T08:15:58.508Z,3.30
2022-07-29T08:18:27.399Z,3.10
2022-07-29T08:20:54.771Z,3.53
2022-07-29T08:23:22.541Z,4.25
2022-07-29T08:25:50.536Z,3.50
2022-07-29T08:28:18.179Z,3.05
2022-07-29T08:30:45.671Z,3.20
2022-07-29T08:33:12.961Z,2.88
2022-07-29T08:35:40.486Z,3.17
2022-07-29T08:38:07.670Z,2.90
2022-07-29T08:40:34.804Z,2.88
2022-07-29T08:43:09.043Z,3.47
2022-07-29T08:45:47.498Z,3.22
2022-07-29T08:48:17.940Z,3.13
2022-07-29T08:50:46.563Z,3.20
2022-07-29T08:53:19.087Z,3.25
2022-07-29T08:55:48.536Z,3.13
2022-07-29T08:58:16.528Z,3.25
2022-07-29T09:00:50.621Z,3.13
2022-07-29T09:03:23.921Z,3.03
2022-07-29T09:05:52.268Z,3.40
2022-07-29T09:08:21.279Z,2.85
2022-07-29T09:10:48.926Z,2.70
2022-07-29T09:13:16.086Z,3.58
2022-07-29T09:15:43.241Z,3.20
2022-07-29T09:18:20.313Z,3.35
2022-07-29T09:21:16.006Z,3.38
2022-07-29T09:24:01.396Z,2.50
2022-07-29T09:26:55.072Z,2.90
2022-07-29T09:29:24.565Z,2.80
2022-07-29T09:31:53.859Z,2.50
2022-07-29T09:34:26.511Z,2.85
2022-07-29T09:36:55.267Z,3.40
2022-07-29T09:39:37.411Z,2.70
2022-07-29T09:42:06.808Z,3.15
2022-07-29T09:44:50.877Z,3.20
2022-07-29T09:47:19.553Z,2.97
2022-07-29T09:49:52.737Z,3.38
2022-07-29T09:52:19.888Z,3.10
2022-07-29T09:57:30.524Z,2.67
2022-07-29T09:59:59.107Z,3.10
2022-07-29T10:02:30.956Z,2.80
2022-07-29T10:04:58.482Z,3.20
2022-07-29T10:09:58.235Z,2.80
2022-07-29T10:12:25.572Z,2.90
2022-07-29T10:14:53.735Z,3.00
2022-07-29T10:17:21.599Z,3.05
2022-07-29T10:19:49.859Z,3.10
2022-07-29T10:22:36.866Z,3.70
2022-07-29T10:27:30.543Z,3.97
2022-07-29T10:29:59.668Z,4.38
2022-07-29T10:32:53.971Z,4.60
2022-07-29T10:35:44.854Z,4.28
2022-07-29T10:38:46.030Z,4.60
2022-07-29T10:41:32.273Z,5.00
2022-07-29T10:44:19.139Z,4.40
2022-07-29T10:46:47.273Z,4.38
2022-07-29T10:49:15.725Z,4.10
2022-07-29T10:51:52.741Z,3.20
2022-07-29T10:54:39.660Z,3.20
2022-07-29T10:57:52.485Z,5.22
2022-07-29T11:00:16.836Z,6.40
2022-07-29T11:02:46.418Z,4.40
2022-07-29T11:05:20.053Z,3.55
2022-07-29T11:08:19.779Z,4.57
2022-07-29T11:10:49.053Z,4.43
2022-07-29T11:13:51.001Z,5.07
2022-07-29T11:16:20.155Z,4.88
2022-07-29T11:19:11.316Z,4.38
2022-07-29T11:21:53.993Z,3.33
2022-07-29T11:24:35.027Z,3.30
2022-07-29T11:27:23.093Z,3.88
2022-07-29T11:29:55.561Z,4.28
2022-07-29T11:32:24.258Z,3.55
2022-07-29T11:35:17.747Z,4.80
2022-07-29T11:37:51.368Z,4.45
2022-07-29T11:40:34.022Z,3.83
2022-07-29T11:43:00.707Z,4.10
2022-07-29T11:45:45.562Z,3.42
2022-07-29T11:48:27.698Z,4.90
2022-07-29T11:50:58.352Z,3.70
2022-07-29T11:53:25.548Z,3.45
2022-07-29T11:55:56.316Z,2.85
2022-07-29T11:58:26.227Z,3.70
2022-07-29T12:00:55.635Z,2.47
2022-07-29T12:03:35.568Z,2.47
2022-07-29T12:06:11.728Z,3.20
2022-07-29T12:08:44.751Z,2.53
2022-07-29T12:11:22.635Z,3.38
2022-07-29T12:13:53.853Z,3.85
2022-07-29T12:16:25.699Z,2.97
2022-07-29T12:19:03.894Z,3.53
2022-07-29T12:21:59.353Z,2.70
2022-07-29T12:24:27.370Z,3.50
2022-07-29T12:26:56.887Z,3.30
2022-07-29T12:29:34.844Z,3.15
2022-07-29T12:32:05.136Z,2.90
2022-07-29T12:34:32.747Z,3.47
2022-07-29T12:36:59.589Z,2.55
2022-07-29T12:39:28.687Z,2.78
2022-07-29T12:42:04.070Z,2.42
2022-07-29T12:44:51.312Z,3.30
2022-07-29T12:47:19.564Z,3.83
2022-07-29T12:49:50.127Z,3.15
2022-07-29T12:52:34.387Z,2.40
2022-07-29T12:55:01.924Z,2.20
2022-07-29T12:57:29.395Z,2.35
2022-07-29T13:00:06.457Z,2.45
2022-07-29T13:05:03.343Z,3.25
2022-07-29T13:10:24.359Z,2.70
2022-07-29T13:13:08.864Z,2.95
2022-07-29T13:15:36.900Z,3.85
2022-07-29T13:18:04.741Z,3.60
2022-07-29T13:20:32.046Z,2.85
2022-07-29T13:23:01.007Z,2.85
2022-07-29T13:25:31.312Z,2.30
2022-07-29T13:27:58.276Z,2.45
2022-07-29T13:30:25.793Z,2.20
2022-07-29T13:32:53.566Z,2.60
2022-07-29T13:35:21.301Z,2.75
2022-07-29T13:37:48.411Z,3.10
2022-07-29T13:42:42.918Z,3.10
2022-07-29T13:45:11.686Z,3.35
2022-07-29T13:47:39.023Z,4.43
2022-07-29T13:50:08.526Z,3.60
2022-07-29T13:52:35.569Z,3.42
2022-07-29T13:57:30.394Z,2.55
2022-07-29T13:59:58.071Z,4.00
2022-07-29T14:02:25.253Z,3.38
2022-07-29T14:04:54.427Z,3.78
2022-07-29T14:07:21.868Z,3.38
2022-07-29T14:09:48.578Z,4.10
2022-07-29T14:12:15.294Z,3.40
2022-07-29T14:14:42.514Z,3.78
2022-07-29T14:17:10.324Z,2.85
2022-07-29T14:19:38.829Z,2.55
2022-07-29T14:22:07.130Z,3.25
2022-07-29T14:24:37.086Z,2.60
2022-07-29T14:27:08.632Z,4.03
2022-07-29T14:29:38.194Z,3.10
2022-07-29T14:32:07.977Z,3.03
2022-07-29T14:34:38.343Z,3.35
2022-07-29T14:37:06.564Z,3.20
2022-07-29T14:39:36.132Z,3.45
2022-07-29T14:42:06.413Z,2.83
2022-07-29T14:47:00.825Z,2.90
2022-07-29T14:49:28.129Z,3.40
2022-07-29T14:51:55.354Z,3.58
2022-07-29T14:54:22.583Z,3.20
2022-07-29T14:56:51.737Z,2.80
2022-07-29T14:59:18.494Z,3.20
2022-07-29T15:01:45.199Z,3.10
2022-07-29T15:04:11.893Z,3.03
2022-07-29T15:06:38.847Z,2.72
2022-07-29T15:09:05.878Z,2.70
2022-07-29T15:11:33.465Z,3.25
2022-07-29T15:14:05.568Z,2.50
2022-07-29T15:16:32.471Z,5.05
2022-07-29T15:19:01.261Z,3.17
2022-07-29T15:21:30.448Z,4.32
2022-07-29T15:26:23.800Z,3.10
2022-07-29T15:31:17.184Z,2.90
2022-07-29T15:33:43.935Z,2.58
2022-07-29T15:36:25.442Z,2.70
2022-07-29T15:38:59.719Z,2.50
2022-07-29T15:41:26.630Z,2.47
2022-07-29T15:43:53.399Z,2.15
2022-07-29T15:46:39.824Z,2.75
2022-07-29T15:49:07.557Z,2.53
2022-07-29T15:51:34.932Z,2.45
2022-07-29T15:54:03.612Z,2.60
2022-07-29T15:56:30.795Z,2.72
2022-07-29T15:58:57.836Z,2.53
2022-07-29T16:01:24.995Z,2.40
2022-07-29T16:03:51.855Z,2.40
2022-07-29T16:06:19.235Z,3.08
2022-07-29T16:08:45.951Z,2.28
2022-07-29T16:11:12.675Z,2.00
2022-07-29T16:13:39.327Z,2.20
2022-07-29T16:16:08.813Z,2.20
2022-07-29T16:18:35.657Z,2.38
2022-07-29T16:21:02.313Z,2.20
2022-07-29T16:23:29.016Z,2.17
2022-07-29T16:26:00.638Z,2.65
2022-07-29T16:28:30.771Z,2.35
2022-07-29T16:30:57.837Z,2.30
2022-07-29T16:33:25.011Z,2.15
2022-07-29T16:35:53.887Z,2.22
2022-07-29T16:38:20.803Z,2.38
2022-07-29T16:40:47.579Z,2.25
2022-07-29T16:43:14.275Z,2.28
2022-07-29T16:45:45.414Z,2.13
2022-07-29T16:48:18.244Z,2.22
2022-07-29T16:50:45.952Z,2.38
2022-07-29T16:53:15.280Z,2.42
2022-07-29T16:55:42.672Z,2.40
2022-07-29T16:58:10.000Z,2.03
2022-07-29T17:00:36.983Z,2.53
2022-07-29T17:03:05.285Z,2.50
2022-07-29T17:05:52.316Z,2.47
2022-07-29T17:08:22.776Z,2.42
2022-07-29T17:10:49.715Z,2.60
2022-07-29T17:13:16.473Z,2.30
2022-07-29T17:18:12.703Z,3.58
2022-07-29T17:20:41.191Z,2.58
2022-07-29T17:23:07.892Z,4.88
2022-07-29T17:25:34.630Z,3.10
2022-07-29T17:28:01.580Z,2.55
2022-07-29T17:32:58.162Z,3.50
2022-07-29T17:36:00.459Z,2.60
2022-07-29T17:38:27.235Z,3.00
2022-07-29T17:40:56.437Z,2.65
2022-07-29T17:43:23.136Z,2.17
2022-07-29T17:45:50.857Z,2.70
2022-07-29T17:48:18.729Z,2.60
2022-07-29T17:50:46.358Z,2.70
2022-07-29T17:53:16.329Z,2.22
2022-07-29T17:55:45.527Z,2.50
2022-07-29T17:58:12.722Z,2.08
2022-07-29T18:00:39.609Z,2.30
2022-07-29T18:07:59.988Z,3.28
2022-07-29T18:10:26.855Z,3.05
2022-07-29T18:12:53.696Z,2.67
2022-07-29T18:15:20.398Z,2.80
2022-07-29T18:17:55.625Z,2.53
2022-07-29T18:20:24.623Z,2.83
2022-07-29T18:25:17.947Z,2.83
2022-07-29T18:27:45.115Z,3.00
2022-07-29T18:32:38.470Z,3.10
2022-07-29T18:35:06.276Z,2.75
2022-07-29T18:38:00.833Z,2.78
2022-07-29T18:40:25.141Z,2.85
2022-07-29T18:42:52.964Z,2.88
2022-07-29T18:45:19.898Z,3.88
2022-07-29T18:47:49.539Z,3.17
2022-07-29T18:50:16.665Z,2.95
2022-07-29T18:55:10.060Z,4.55
2022-07-29T18:57:56.063Z,5.40
2022-07-29T19:00:24.100Z,3.85
2022-07-29T19:02:51.573Z,3.70
2022-07-29T19:05:18.531Z,4.10
2022-07-29T19:07:45.441Z,3.85
2022-07-29T19:10:13.394Z,3.78
2022-07-29T19:12:40.162Z,3.35
2022-07-29T19:15:07.983Z,3.38
2022-07-29T19:17:36.975Z,2.95
2022-07-29T19:20:04.561Z,3.60
2022-07-29T19:22:36.749Z,3.10
2022-07-29T19:25:03.872Z,3.50
2022-07-29T19:27:30.563Z,3.50
2022-07-29T19:29:59.394Z,3.45
2022-07-29T19:32:26.595Z,3.58
2022-07-29T19:35:12.080Z,3.13
2022-07-29T19:37:38.803Z,3.30
2022-07-29T19:40:06.852Z,4.30
2022-07-29T19:42:33.835Z,4.35
2022-07-29T19:45:00.598Z,4.43
2022-07-29T19:47:27.248Z,4.20
2022-07-29T19:49:53.936Z,3.58
2022-07-29T19:52:20.663Z,4.13
2022-07-29T19:54:47.406Z,3.90
2022-07-29T19:57:14.337Z,4.80
2022-07-29T19:59:44.253Z,4.07
2022-07-29T20:02:12.166Z,4.25
2022-07-29T20:04:39.474Z,4.05
2022-07-29T20:07:07.124Z,4.00
2022-07-29T20:09:34.693Z,4.38
2022-07-29T20:12:01.635Z,4.82
2022-07-29T20:14:28.459Z,4.07
2022-07-29T20:16:55.250Z,3.60
2022-07-29T20:19:21.982Z,3.30
2022-07-29T20:21:51.725Z,4.38
2022-07-29T20:24:20.356Z,3.90
2022-07-29T20:26:48.097Z,3.47
2022-07-29T20:29:17.351Z,3.88
2022-07-29T20:31:45.492Z,4.70
2022-07-29T20:34:20.244Z,4.78
2022-07-29T20:36:48.690Z,4.20
2022-07-29T20:39:15.440Z,4.20
2022-07-29T20:41:42.159Z,4.82
2022-07-29T20:44:09.285Z,4.47
2022-07-29T20:46:36.057Z,4.22
2022-07-29T20:49:02.849Z,4.57
2022-07-29T20:51:29.635Z,5.32
2022-07-29T20:53:56.395Z,4.35
2022-07-29T20:56:23.281Z,4.82
2022-07-29T20:58:49.955Z,4.10
2022-07-29T21:01:16.689Z,4.28
2022-07-29T21:03:43.435Z,4.68
2022-07-29T21:06:11.314Z,5.15
2022-07-29T21:08:38.885Z,4.90
2022-07-29T21:11:05.592Z,5.30
2022-07-29T21:13:37.794Z,5.28
2022-07-29T21:16:12.823Z,5.40
2022-07-29T21:18:48.502Z,5.05
2022-07-29T21:21:16.353Z,4.70
2022-07-29T21:23:44.298Z,4.32
2022-07-29T21:26:13.046Z,4.93
2022-07-29T21:28:40.599Z,4.72
2022-07-29T21:31:10.488Z,4.60
2022-07-29T21:33:37.493Z,4.90
2022-07-29T21:36:42.350Z,4.40
2022-07-29T21:38:52.054Z,4.45
2022-07-29T21:41:18.724Z,4.55
2022-07-29T21:43:46.049Z,4.40
2022-07-29T21:46:12.896Z,4.70
2022-07-29T21:48:44.222Z,4.68
2022-07-29T21:51:11.403Z,4.40
2022-07-29T21:53:38.087Z,4.32
2022-07-29T21:56:06.791Z,4.40
2022-07-29T21:58:37.003Z,4.75
2022-07-29T22:01:03.795Z,4.55
2022-07-29T22:03:30.492Z,4.63
2022-07-29T22:05:57.259Z,4.45
2022-07-29T22:08:23.943Z,4.05
2022-07-29T22:10:50.606Z,4.28
2022-07-29T22:13:17.275Z,4.22
2022-07-29T22:15:47.009Z,4.70
2022-07-29T22:18:20.634Z,4.70
2022-07-29T22:20:49.535Z,3.78
2022-07-29T22:23:16.376Z,4.68
2022-07-29T22:25:43.093Z,3.90
2022-07-29T22:28:09.791Z,4.07
2022-07-29T22:30:36.679Z,3.95
2022-07-29T22:33:03.423Z,4.53
2022-07-29T22:35:30.304Z,4.38
2022-07-29T22:37:56.994Z,4.68
2022-07-29T22:40:23.687Z,4.63
2022-07-29T22:42:57.538Z,4.07
2022-07-29T22:45:24.404Z,5.82
2022-07-29T22:47:55.936Z,5.10
2022-07-29T22:50:24.649Z,4.85
2022-07-29T22:52:51.345Z,5.15
2022-07-29T22:55:18.027Z,4.60
2022-07-29T22:57:44.675Z,5.07
2022-07-29T23:00:12.680Z,5.23
2022-07-29T23:02:40.287Z,4.93
2022-07-29T23:05:08.884Z,4.70
2022-07-29T23:07:35.613Z,4.38
2022-07-29T23:10:03.163Z,4.05
2022-07-29T23:12:29.908Z,4.47
2022-07-29T23:14:56.561Z,4.55
2022-07-29T23:17:23.257Z,5.35
2022-07-29T23:19:50.089Z,4.65
2022-07-29T23:22:16.994Z,4.47
2022-07-29T23:24:45.374Z,3.90
2022-07-29T23:27:12.038Z,4.03
2022-07-29T23:29:38.727Z,4.80
2022-07-29T23:32:05.779Z,4.53
2022-07-29T23:34:32.440Z,5.75
2022-07-29T23:36:59.355Z,5.80
2022-07-29T23:39:26.251Z,5.88
2022-07-29T23:41:52.945Z,5.30
2022-07-29T23:44:19.624Z,4.33
2022-07-29T23:46:46.442Z,4.55
2022-07-29T23:49:13.932Z,5.13
2022-07-29T23:51:40.675Z,4.82
2022-07-29T23:54:07.412Z,4.50
2022-07-29T23:56:34.129Z,4.97
2022-07-29T23:59:00.837Z,4.53
